createdAt,value
2022-10-07T00:01:37.019Z,6.11
2022-10-07T00:06:41.095Z,6.08
2022-10-07T00:11:45.237Z,6.07
2022-10-07T00:16:49.512Z,6.11
2022-10-07T00:21:53.573Z,6.05
2022-10-07T00:26:57.712Z,6.01
2022-10-07T00:32:01.867Z,6.01
2022-10-07T00:37:06.087Z,6.05
2022-10-07T00:42:10.246Z,6.06
2022-10-07T00:47:14.382Z,6.01
2022-10-07T00:52:18.532Z,5.98
2022-10-07T00:57:22.716Z,5.97
2022-10-07T01:02:26.966Z,5.89
2022-10-07T01:07:31.016Z,5.94
2022-10-07T01:12:35.181Z,5.92
2022-10-07T01:17:39.351Z,5.90
2022-10-07T01:22:43.519Z,5.89
2022-10-07T01:27:47.682Z,5.92
2022-10-07T01:32:49.968Z,5.88
2022-10-07T01:37:54.128Z,5.85
2022-10-07T01:42:56.389Z,5.83
2022-10-07T01:48:00.588Z,5.74
2022-10-07T01:53:04.719Z,5.80
2022-10-07T01:58:08.921Z,5.78
2022-10-07T02:03:13.235Z,5.83
2022-10-07T02:08:17.197Z,5.82
2022-10-07T02:13:21.348Z,5.87
2022-10-07T02:18:25.564Z,5.99
2022-10-07T02:23:29.708Z,5.90
2022-10-07T02:28:33.987Z,5.78
2022-10-07T02:33:38.044Z,5.74
2022-10-07T02:38:42.207Z,5.63
2022-10-07T02:43:46.338Z,5.56
2022-10-07T02:48:50.504Z,5.60
2022-10-07T02:53:54.662Z,5.63
2022-10-07T02:58:58.829Z,5.61
2022-10-07T03:04:03.048Z,5.71
2022-10-07T03:09:07.143Z,5.74
2022-10-07T03:14:11.354Z,5.70
2022-10-07T03:19:15.523Z,5.66
2022-10-07T03:24:19.646Z,5.70
2022-10-07T03:29:21.966Z,5.66
2022-10-07T03:34:26.079Z,5.51
2022-10-07T03:39:30.270Z,5.55
2022-10-07T03:44:34.404Z,5.47
2022-10-07T03:49:38.559Z,5.36
2022-10-07T03:54:42.749Z,5.46
2022-10-07T03:59:46.927Z,5.61
2022-10-07T04:04:51.064Z,5.59
2022-10-07T04:09:55.221Z,5.52
2022-10-07T04:14:59.375Z,5.50
2022-10-07T04:20:03.562Z,5.58
2022-10-07T04:25:07.740Z,5.58
2022-10-07T04:30:11.885Z,5.59
2022-10-07T04:35:16.017Z,5.45
2022-10-07T04:40:20.231Z,5.39
2022-10-07T04:45:24.361Z,5.32
2022-10-07T04:50:28.535Z,5.25
2022-10-07T04:55:32.704Z,5.29
2022-10-07T05:00:36.912Z,5.35
2022-10-07T05:05:41.002Z,5.42
2022-10-07T05:10:45.191Z,5.35
2022-10-07T05:15:47.457Z,5.42
2022-10-07T05:20:51.661Z,5.52
2022-10-07T05:25:53.903Z,5.52
2022-10-07T05:30:58.088Z,5.45
2022-10-07T05:36:02.209Z,5.53
2022-10-07T05:41:06.399Z,5.58
2022-10-07T05:46:10.646Z,5.62
2022-10-07T05:51:14.723Z,5.69
2022-10-07T05:56:18.894Z,5.85
2022-10-07T06:01:23.087Z,6.30
2022-10-07T06:06:27.289Z,6.53
2022-10-07T06:11:31.375Z,6.56
2022-10-07T06:21:39.691Z,6.47
2022-10-07T06:26:43.995Z,6.45
2022-10-07T06:31:48.033Z,6.44
2022-10-07T06:36:52.203Z,6.48
2022-10-07T06:41:56.328Z,6.54
2022-10-07T06:47:00.545Z,6.61
2022-10-07T06:52:04.706Z,6.65
2022-10-07T06:57:26.719Z,6.78
2022-10-07T07:02:13.062Z,6.93
2022-10-07T07:07:17.178Z,7.05
2022-10-07T07:12:21.329Z,7.23
2022-10-07T07:17:23.586Z,7.36
2022-10-07T07:22:27.756Z,7.64
2022-10-07T07:27:30.071Z,7.88
2022-10-07T07:32:34.164Z,8.01
2022-10-07T07:37:38.363Z,8.26
2022-10-07T07:42:42.568Z,8.50
2022-10-07T07:47:47.023Z,8.76
2022-10-07T07:52:55.224Z,9.05
2022-10-07T07:57:53.128Z,9.29
2022-10-07T08:02:57.330Z,9.58
2022-10-07T08:08:01.452Z,10.01
2022-10-07T08:13:05.639Z,10.32
2022-10-07T08:18:09.783Z,10.53
2022-10-07T08:23:13.929Z,10.82
2022-10-07T08:28:18.114Z,11.05
2022-10-07T08:33:22.229Z,11.38
2022-10-07T08:43:30.568Z,11.90
2022-10-07T08:48:34.697Z,12.19
2022-10-07T08:53:38.886Z,12.46
2022-10-07T08:58:43.063Z,12.62
2022-10-07T09:03:47.222Z,12.83
2022-10-07T09:08:51.355Z,13.13
2022-10-07T09:13:55.590Z,13.32
2022-10-07T09:18:57.803Z,13.52
2022-10-07T09:24:01.975Z,13.73
2022-10-07T09:29:06.127Z,13.87
2022-10-07T09:34:08.390Z,13.95
2022-10-07T09:39:12.525Z,14.04
2022-10-07T09:44:16.704Z,14.21
2022-10-07T09:49:24.276Z,14.36
2022-10-07T09:54:25.052Z,14.52
2022-10-07T09:59:29.173Z,14.63
2022-10-07T10:04:33.366Z,14.74
2022-10-07T10:09:37.493Z,14.92
2022-10-07T10:14:41.747Z,15.09
2022-10-07T10:19:45.841Z,15.19
2022-10-07T10:24:49.963Z,15.28
2022-10-07T10:29:54.140Z,15.37
2022-10-07T10:34:58.301Z,15.53
2022-10-07T10:40:02.486Z,15.61
2022-10-07T10:45:06.614Z,15.71
2022-10-07T10:50:10.808Z,15.90
2022-10-07T10:55:14.961Z,15.98
2022-10-07T11:00:19.129Z,16.20
2022-10-07T11:05:23.279Z,16.28
2022-10-07T11:10:27.414Z,16.37
2022-10-07T11:15:31.583Z,16.52
2022-10-07T11:20:33.876Z,16.54
2022-10-07T11:25:38.016Z,16.64
2022-10-07T11:30:40.292Z,16.70
2022-10-07T11:35:44.445Z,16.66
2022-10-07T11:40:48.629Z,16.69
2022-10-07T11:45:52.772Z,16.80
2022-10-07T11:50:56.945Z,16.80
2022-10-07T11:56:01.093Z,16.96
2022-10-07T12:01:05.284Z,17.03
2022-10-07T12:06:09.433Z,17.16
2022-10-07T12:11:13.603Z,17.24
2022-10-07T12:16:17.787Z,17.38
2022-10-07T12:21:21.902Z,17.40
2022-10-07T12:26:26.014Z,17.42
2022-10-07T12:31:30.260Z,17.58
2022-10-07T12:36:34.387Z,17.55
2022-10-07T12:41:40.326Z,17.52
2022-10-07T12:46:42.683Z,17.63
2022-10-07T12:51:46.856Z,17.66
2022-10-07T12:56:51.054Z,17.75
2022-10-07T13:01:55.265Z,17.82
2022-10-07T13:06:59.386Z,17.89
2022-10-07T13:12:03.488Z,18.01
2022-10-07T13:17:05.778Z,18.03
2022-10-07T13:22:09.911Z,18.14
2022-10-07T13:27:12.169Z,18.27
2022-10-07T13:32:16.324Z,18.35
2022-10-07T13:37:20.511Z,18.43
2022-10-07T13:42:22.772Z,18.38
2022-10-07T13:47:26.946Z,18.28
2022-10-07T13:52:31.091Z,18.38
2022-10-07T13:57:35.256Z,18.50
2022-10-07T14:02:40.549Z,18.55
2022-10-07T14:07:43.536Z,18.56
2022-10-07T14:12:48.091Z,18.55
2022-10-07T14:17:51.880Z,18.55
2022-10-07T14:22:56.010Z,18.60
2022-10-07T14:28:00.253Z,18.62
2022-10-07T14:33:04.330Z,18.63
2022-10-07T14:38:08.615Z,18.66
2022-10-07T14:43:12.687Z,18.58
2022-10-07T14:48:16.829Z,18.50
2022-10-07T14:53:20.964Z,18.39
2022-10-07T14:58:25.133Z,18.28
2022-10-07T15:08:33.475Z,17.99
2022-10-07T15:13:37.632Z,17.73
2022-10-07T15:18:45.134Z,17.62
2022-10-07T15:23:45.946Z,17.59
2022-10-07T15:28:50.213Z,17.45
2022-10-07T15:33:52.387Z,17.28
2022-10-07T15:38:56.500Z,17.19
2022-10-07T15:44:00.750Z,17.07
2022-10-07T15:49:02.969Z,17.75
2022-10-07T15:54:07.130Z,17.50
2022-10-07T15:59:11.282Z,17.77
2022-10-07T16:04:15.432Z,17.55
2022-10-07T16:09:19.630Z,16.90
2022-10-07T16:14:23.754Z,16.66
2022-10-07T16:19:27.911Z,16.40
2022-10-07T16:24:35.125Z,16.20
2022-10-07T16:29:36.235Z,16.28
2022-10-07T16:34:40.372Z,16.12
2022-10-07T16:39:44.557Z,15.66
2022-10-07T16:44:50.833Z,15.13
2022-10-07T16:49:52.896Z,14.78
2022-10-07T16:54:57.045Z,14.27
2022-10-07T17:00:01.298Z,13.97
2022-10-07T17:05:05.390Z,13.56
2022-10-07T17:10:09.531Z,13.26
2022-10-07T17:15:13.703Z,13.05
2022-10-07T17:20:17.834Z,12.85
2022-10-07T17:25:22.019Z,12.67
2022-10-07T17:30:26.208Z,12.53
2022-10-07T17:35:30.437Z,12.46
2022-10-07T17:40:32.644Z,12.26
2022-10-07T17:50:39.089Z,11.66
2022-10-07T17:55:41.353Z,11.41
2022-10-07T18:00:45.495Z,11.13
2022-10-07T18:05:49.611Z,10.90
2022-10-07T18:10:53.804Z,10.74
2022-10-07T18:15:57.957Z,10.61
2022-10-07T18:21:02.094Z,10.46
2022-10-07T18:26:06.288Z,10.35
2022-10-07T18:31:12.083Z,10.25
2022-10-07T18:36:14.597Z,10.16
2022-10-07T18:41:18.759Z,10.04
2022-10-07T18:46:22.916Z,9.94
2022-10-07T18:56:31.416Z,9.81
2022-10-07T19:01:35.650Z,9.71
2022-10-07T19:06:39.624Z,9.65
2022-10-07T19:11:43.828Z,9.53
2022-10-07T19:16:48.013Z,9.44
2022-10-07T19:21:52.083Z,9.35
2022-10-07T19:26:56.290Z,9.31
2022-10-07T19:32:04.397Z,9.23
2022-10-07T19:37:04.631Z,9.16
2022-10-07T19:42:08.855Z,9.10
2022-10-07T19:47:11.036Z,8.99
2022-10-07T19:52:15.162Z,8.96
2022-10-07T19:57:19.378Z,8.85
2022-10-07T20:02:23.593Z,8.78
2022-10-07T20:07:27.696Z,8.74
2022-10-07T20:12:31.858Z,8.68
2022-10-07T20:17:35.988Z,8.67
2022-10-07T20:22:40.168Z,8.67
2022-10-07T20:27:44.886Z,8.61
2022-10-07T20:32:49.066Z,8.57
2022-10-07T20:37:52.698Z,8.52
2022-10-07T20:42:56.736Z,8.41
2022-10-07T20:48:00.911Z,8.39
2022-10-07T20:53:05.058Z,8.28
2022-10-07T20:58:09.217Z,8.27
2022-10-07T21:03:13.383Z,8.24
2022-10-07T21:08:17.545Z,8.19
2022-10-07T21:13:21.719Z,8.12
2022-10-07T21:18:25.886Z,8.11
2022-10-07T21:23:30.022Z,8.04
2022-10-07T21:28:34.259Z,7.99
2022-10-07T21:33:36.463Z,7.92
2022-10-07T21:38:40.641Z,7.90
2022-10-07T21:43:44.790Z,7.86
2022-10-07T21:48:48.980Z,7.86
2022-10-07T21:53:53.107Z,7.83
2022-10-07T21:58:57.298Z,7.78
2022-10-07T22:04:01.516Z,7.77
2022-10-07T22:09:05.616Z,7.79
2022-10-07T22:14:12.546Z,7.85
2022-10-07T22:19:14.978Z,7.86
2022-10-07T22:24:18.179Z,7.85
2022-10-07T22:29:22.352Z,7.87
2022-10-07T22:39:30.649Z,7.92
2022-10-07T22:44:34.748Z,7.96
2022-10-07T22:49:47.094Z,8.05
2022-10-07T22:54:43.065Z,8.32
2022-10-07T22:59:47.199Z,8.39
2022-10-07T23:04:51.407Z,8.44
2022-10-07T23:09:55.543Z,8.47
2022-10-07T23:14:59.699Z,8.34
2022-10-07T23:20:03.878Z,8.23
2022-10-07T23:25:06.113Z,8.28
2022-10-07T23:30:10.320Z,8.30
2022-10-07T23:35:12.569Z,8.52
2022-10-07T23:40:16.733Z,8.56
2022-10-07T23:45:20.901Z,8.74
2022-10-07T23:50:25.042Z,8.71
2022-10-07T23:55:29.245Z,8.72
